Cody, WY

9:09 AM MDT on April 25, 2017 (GMT -0600)
Cody WY, Cody DITWIT Weather @5230 ft | | Change Station
Active Advisory: Special Statement Active Notice: Public Information Statement

Elev 5135 ft 44.49 °N, 108.99 °W | Updated 8 seconds ago

Light Snow
Light Snow
32.7 °F
Feels Like 25 °F
N
9.0
Wind Variable Wind from North
Gusts 15.0 mph

Today
High -- | Low -- °F
--% Chance of Precip.
Yesterday
High -- | Low -- °F
Precip. -- in
Pressure 29.79 in
Visibility 9.0 miles
Clouds Overcast 500 ft
Windchill 25 °F
Dew Point 29 °F
Humidity 86%
Rainfall 0.28 in
Snow Depth Not available.
6:15 AM 8:13 PM
Waning Crescent, 1% visible
METAR KCOD 251456Z AUTO 35013G19KT 9SM -SN OVC005 01/00 A2974 RMK AO2 SLP088 P0000 60003 T00110000 53025 FZRANO
Pressure 29.79 in
Visibility 9.0 miles
Clouds Overcast 500 ft
Windchill 25 °F
Dew Point 29 °F
Humidity 86%
Rainfall 0.28 in
Snow Depth Not available.
6:15 AM 8:13 PM
Waning Crescent, 1% visible
METAR KCOD 251456Z AUTO 35013G19KT 9SM -SN OVC005 01/00 A2974 RMK AO2 SLP088 P0000 60003 T00110000 53025 FZRANO

Get Your Daily Forecast Email!

Thanks for signing up!

Be on the lookout for a verification email in your inbox.

You'll start receiving severe weather alerts in your inbox..

×

10-Day Weather Forecast

Almanac

Astronomy

Apr. 25, 2017 Rise Set
Actual Time
Civil Twilight
Nautical Twilight
Astronomical Twilight
Moon
Length of Visible Light
Length of Day
Tomorrow will be .
, % of the Moon is Illuminated

Today's Extremes

State Highs State Lows

Community

WunderPhotos

WunderBlog® & News

Nearby

Air Quality

  Air Quality AQ Index Pollutant
Not available.

Snow Depth

Station Depth Elevation

Earthquake Activity

City Distance Mag. Time & Date
Minimum magnitude displayed is 2.5.

Coastal Water Temperatures

Place Temperature

Stations

Nearby Weather Stations

Station Location Temp. Windchill Dew Point Humidity Wind Precip. Elev Updated Type
                   

Watches & Warnings

Special Statement
Issued: 2:21 AM MDT Apr. 25, 2017 – National Weather Service

... Burst of Spring snow expected through this morning across
portions of the Cody foothills...

Light rain will mixed with snow before dawn. The snow or rain
snow mix will continue at times through this morning. The
heaviest snow is expected through Tuesday morning above 5500
feet... with generally a trace to 3 inches of total snowfall
accumulation by noon Tuesday. Highways of the area may become
slick or slushy at times. Visibility could be reduced to under one
mile at times in snow.